createdAt,value
2018-06-17T00:01:41.585Z,11.80
2018-06-17T00:04:11.522Z,11.53
2018-06-17T00:06:41.368Z,11.23
2018-06-17T00:09:11.231Z,11.87
2018-06-17T00:11:41.075Z,11.17
2018-06-17T00:14:10.928Z,10.90
2018-06-17T00:16:40.768Z,9.90
2018-06-17T00:19:10.592Z,9.83
2018-06-17T00:21:40.444Z,9.40
2018-06-17T00:24:10.260Z,10.50
2018-06-17T00:26:40.157Z,9.63
2018-06-17T00:29:09.952Z,9.43
2018-06-17T00:31:39.815Z,10.20
2018-06-17T00:34:09.585Z,9.30
2018-06-17T00:36:39.457Z,9.57
2018-06-17T00:39:11.056Z,8.63
2018-06-17T00:41:41.071Z,9.37
2018-06-17T00:44:10.893Z,8.97
2018-06-17T00:46:40.719Z,8.93
2018-06-17T00:49:10.557Z,8.53
2018-06-17T00:51:40.412Z,9.17
2018-06-17T00:54:10.208Z,9.00
2018-06-17T00:56:40.036Z,11.83
2018-06-17T00:59:09.912Z,12.00
2018-06-17T01:01:39.729Z,8.80
2018-06-17T01:04:09.644Z,9.20
2018-06-17T01:06:39.481Z,8.67
2018-06-17T01:09:09.394Z,9.13
2018-06-17T01:11:39.244Z,8.53
2018-06-17T01:14:09.072Z,9.53
2018-06-17T01:16:38.911Z,9.27
2018-06-17T01:19:08.771Z,9.60
2018-06-17T01:21:38.648Z,9.43
2018-06-17T01:24:08.441Z,10.03
2018-06-17T01:26:38.279Z,9.77
2018-06-17T01:29:08.580Z,10.33
2018-06-17T01:31:38.436Z,10.87
2018-06-17T01:34:08.316Z,10.67
2018-06-17T01:36:38.138Z,9.90
2018-06-17T01:39:08.637Z,11.67
2018-06-17T01:41:38.507Z,12.13
2018-06-17T01:44:08.390Z,12.80
2018-06-17T01:46:38.211Z,11.93
2018-06-17T01:49:08.009Z,11.30
2018-06-17T01:51:37.879Z,12.10
2018-06-17T01:54:07.738Z,12.67
2018-06-17T01:56:37.571Z,12.93
2018-06-17T01:59:07.361Z,13.47
2018-06-17T02:01:37.241Z,14.00
2018-06-17T02:04:12.028Z,12.80
2018-06-17T02:08:53.956Z,13.33
2018-06-17T02:11:28.684Z,11.67
2018-06-17T02:14:03.700Z,11.07
2018-06-17T02:16:33.590Z,10.90
2018-06-17T02:19:03.455Z,12.17
2018-06-17T02:21:33.264Z,11.93
2018-06-17T02:24:03.283Z,12.20
2018-06-17T02:26:33.153Z,11.70
2018-06-17T02:29:02.993Z,11.97
2018-06-17T02:31:33.031Z,11.80
2018-06-17T02:34:02.855Z,10.63
2018-06-17T02:36:32.701Z,10.30
2018-06-17T02:39:02.564Z,11.40
2018-06-17T02:41:32.456Z,11.60
2018-06-17T02:44:02.322Z,11.00
2018-06-17T02:46:37.211Z,10.40
2018-06-17T02:49:12.449Z,10.27
2018-06-17T02:51:47.280Z,9.83
2018-06-17T02:54:22.078Z,9.63
2018-06-17T02:56:51.922Z,9.87
2018-06-17T02:59:21.724Z,10.10
2018-06-17T03:01:51.633Z,10.10
2018-06-17T03:04:21.440Z,10.97
2018-06-17T03:06:51.340Z,9.53
2018-06-17T03:09:21.207Z,9.23
2018-06-17T03:11:51.036Z,9.07
2018-06-17T03:14:20.890Z,9.40
2018-06-17T03:16:50.855Z,9.00
2018-06-17T03:19:20.952Z,9.07
2018-06-17T03:21:50.877Z,9.40
2018-06-17T03:24:25.916Z,9.60
2018-06-17T03:27:00.683Z,9.73
2018-06-17T03:29:35.551Z,9.20
2018-06-17T03:32:10.509Z,9.67
2018-06-17T03:34:40.373Z,10.13
2018-06-17T03:37:10.240Z,9.50
2018-06-17T03:39:40.043Z,10.17
2018-06-17T03:42:09.895Z,9.53
2018-06-17T03:44:39.737Z,9.80
2018-06-17T03:47:09.569Z,9.83
2018-06-17T03:49:39.376Z,10.37
2018-06-17T03:52:09.227Z,9.37
2018-06-17T03:54:39.013Z,9.03
2018-06-17T03:57:08.839Z,8.80
2018-06-17T03:59:38.641Z,8.57
2018-06-17T04:02:08.475Z,8.67
2018-06-17T04:04:43.404Z,8.17
2018-06-17T04:07:13.197Z,7.87
2018-06-17T04:09:43.033Z,7.77
2018-06-17T04:12:12.892Z,7.47
2018-06-17T04:14:42.731Z,7.90
2018-06-17T04:17:15.047Z,7.53
2018-06-17T04:19:46.364Z,7.97
2018-06-17T04:22:16.235Z,7.50
2018-06-17T04:24:46.120Z,7.97
2018-06-17T04:27:15.916Z,7.40
2018-06-17T04:29:45.743Z,6.90
2018-06-17T04:32:15.559Z,7.00
2018-06-17T04:34:45.379Z,6.90
2018-06-17T04:37:15.176Z,6.63
2018-06-17T04:39:45.013Z,5.77
2018-06-17T04:42:14.856Z,6.03
2018-06-17T04:44:44.677Z,6.10
2018-06-17T04:47:14.528Z,6.67
2018-06-17T04:49:44.350Z,6.13
2018-06-17T04:52:14.240Z,6.47
2018-06-17T04:54:44.048Z,6.40
2018-06-17T04:57:13.914Z,6.60
2018-06-17T04:59:43.792Z,5.83
2018-06-17T05:02:13.643Z,6.40
2018-06-17T05:04:43.463Z,5.73
2018-06-17T05:07:13.269Z,5.73
2018-06-17T05:09:43.101Z,6.00
2018-06-17T05:12:12.922Z,5.50
2018-06-17T05:14:42.755Z,5.87
2018-06-17T05:17:12.636Z,5.43
2018-06-17T05:19:42.503Z,5.27
2018-06-17T05:22:12.327Z,5.53
2018-06-17T05:24:42.152Z,5.57
2018-06-17T05:27:12.006Z,5.93
2018-06-17T05:29:41.814Z,5.70
2018-06-17T05:32:11.716Z,5.87
2018-06-17T05:34:41.504Z,5.83
2018-06-17T05:37:11.384Z,6.20
2018-06-17T05:39:41.176Z,6.50
2018-06-17T05:42:11.006Z,5.97
2018-06-17T05:44:40.820Z,6.20
2018-06-17T05:47:10.668Z,5.50
2018-06-17T05:49:40.512Z,6.20
2018-06-17T05:52:10.336Z,6.90
2018-06-17T05:54:40.160Z,6.70
2018-06-17T05:57:09.956Z,6.37
2018-06-17T05:59:39.808Z,6.33
2018-06-17T06:02:09.604Z,6.63
2018-06-17T06:04:39.416Z,6.53
2018-06-17T06:07:09.223Z,7.27
2018-06-17T06:09:39.060Z,9.47
2018-06-17T06:12:08.921Z,8.43
2018-06-17T06:14:38.800Z,8.57
2018-06-17T06:17:08.739Z,8.10
2018-06-17T06:19:38.536Z,7.30
2018-06-17T06:22:08.368Z,6.20
2018-06-17T06:24:38.212Z,6.43
2018-06-17T06:27:08.099Z,6.17
2018-06-17T06:29:37.965Z,5.40
2018-06-17T06:32:07.905Z,6.80
2018-06-17T06:34:37.798Z,5.67
2018-06-17T06:37:07.660Z,5.27
2018-06-17T06:39:37.470Z,5.27
2018-06-17T06:42:07.364Z,5.20
2018-06-17T06:44:37.197Z,6.07
2018-06-17T06:47:07.042Z,5.30
2018-06-17T06:49:36.865Z,5.10
2018-06-17T06:52:06.744Z,5.27
2018-06-17T06:54:36.604Z,4.67
2018-06-17T06:57:06.662Z,4.60
2018-06-17T06:59:36.514Z,5.10
2018-06-17T07:02:17.224Z,5.00
2018-06-17T07:04:57.780Z,5.07
2018-06-17T07:07:38.568Z,5.10
2018-06-17T07:10:19.249Z,5.33
2018-06-17T07:12:49.059Z,5.27
2018-06-17T07:15:28.600Z,5.07
2018-06-17T07:18:09.245Z,4.73
2018-06-17T07:20:39.132Z,4.33
2018-06-17T07:23:08.635Z,4.40
2018-06-17T07:26:48.888Z,4.43
2018-06-17T07:29:31.589Z,4.73
2018-06-17T07:32:01.177Z,4.50
2018-06-17T07:34:30.752Z,4.23
2018-06-17T07:37:00.420Z,4.37
2018-06-17T07:41:37.300Z,4.33
2018-06-17T07:44:06.940Z,4.40
2018-06-17T07:46:36.508Z,4.33
2018-06-17T07:49:44.917Z,4.17
2018-06-17T07:52:26.392Z,4.40
2018-06-17T07:54:55.928Z,4.03
2018-06-17T07:57:26.688Z,4.57
2018-06-17T07:59:56.244Z,3.93
2018-06-17T08:02:25.792Z,5.70
2018-06-17T08:04:55.351Z,4.37
2018-06-17T08:07:24.867Z,4.97
2018-06-17T08:09:54.465Z,4.10
2018-06-17T08:12:24.064Z,4.80
2018-06-17T08:14:53.611Z,4.23
2018-06-17T08:17:23.159Z,4.80
2018-06-17T08:19:53.569Z,4.73
2018-06-17T08:22:23.115Z,5.47
2018-06-17T08:24:52.641Z,7.53
2018-06-17T08:27:22.171Z,4.27
2018-06-17T08:29:51.716Z,4.07
2018-06-17T08:32:21.235Z,4.07
2018-06-17T08:34:50.776Z,3.90
2018-06-17T08:37:20.304Z,5.00
2018-06-17T08:39:49.891Z,4.30
2018-06-17T08:42:19.423Z,3.47
2018-06-17T08:44:48.963Z,3.70
2018-06-17T08:47:18.493Z,3.70
2018-06-17T08:49:48.064Z,3.47
2018-06-17T08:52:17.597Z,3.50
2018-06-17T08:54:47.193Z,3.33
2018-06-17T08:57:16.704Z,3.83
2018-06-17T08:59:46.240Z,4.23
2018-06-17T09:02:15.749Z,4.00
2018-06-17T09:04:45.292Z,4.00
2018-06-17T09:07:14.828Z,3.70
2018-06-17T09:09:44.355Z,3.47
2018-06-17T09:12:13.847Z,3.70
2018-06-17T09:14:43.391Z,3.93
2018-06-17T09:17:12.917Z,4.07
2018-06-17T09:19:42.509Z,3.70
2018-06-17T09:22:11.999Z,4.20
2018-06-17T09:24:41.554Z,3.47
2018-06-17T09:27:11.083Z,4.00
2018-06-17T09:29:40.687Z,3.57
2018-06-17T09:32:10.317Z,3.77
2018-06-17T09:34:39.756Z,3.80
2018-06-17T09:37:09.288Z,3.70
2018-06-17T09:39:38.820Z,3.10
2018-06-17T09:42:08.367Z,3.70
2018-06-17T09:44:37.868Z,3.50
2018-06-17T09:47:07.444Z,3.03
2018-06-17T09:49:36.978Z,3.37
2018-06-17T09:52:06.554Z,4.27
2018-06-17T09:54:36.112Z,3.93
2018-06-17T09:57:05.671Z,4.77
2018-06-17T09:59:35.189Z,3.37
2018-06-17T10:02:04.820Z,3.53
2018-06-17T10:04:34.346Z,3.20
2018-06-17T10:07:03.872Z,3.30
2018-06-17T10:09:38.205Z,3.30
2018-06-17T10:12:07.740Z,2.87
2018-06-17T10:14:37.610Z,3.60
2018-06-17T10:17:08.864Z,3.40
2018-06-17T10:19:38.683Z,3.47
2018-06-17T10:22:08.631Z,3.17
2018-06-17T10:24:38.432Z,3.30
2018-06-17T10:27:08.372Z,3.50
2018-06-17T10:29:38.278Z,3.40
2018-06-17T10:32:08.108Z,3.40
2018-06-17T10:34:37.992Z,3.23
2018-06-17T10:37:07.859Z,2.80
2018-06-17T10:39:37.719Z,3.20
2018-06-17T10:42:07.529Z,3.00
2018-06-17T10:44:37.316Z,3.20
2018-06-17T10:47:07.147Z,2.80
2018-06-17T10:49:36.987Z,2.97
2018-06-17T10:52:06.883Z,3.10
2018-06-17T10:54:36.704Z,3.23
2018-06-17T10:57:07.371Z,3.10
2018-06-17T10:59:36.464Z,3.00
2018-06-17T11:02:06.464Z,3.03
2018-06-17T11:04:36.282Z,3.07
2018-06-17T11:07:06.188Z,3.00
2018-06-17T11:09:36.028Z,3.57
2018-06-17T11:12:05.950Z,3.00
2018-06-17T11:14:35.783Z,3.10
2018-06-17T11:17:05.642Z,2.97
2018-06-17T11:19:35.526Z,3.20
2018-06-17T11:22:05.360Z,3.53
2018-06-17T11:24:35.248Z,3.47
2018-06-17T11:27:05.102Z,3.30
2018-06-17T11:29:35.052Z,3.27
2018-06-17T11:32:04.922Z,2.93
2018-06-17T11:34:35.069Z,3.07
2018-06-17T11:37:04.976Z,3.47
2018-06-17T11:39:34.870Z,3.37
2018-06-17T11:42:04.715Z,3.37
2018-06-17T11:44:34.639Z,3.00
2018-06-17T11:47:04.512Z,3.30
2018-06-17T11:49:34.431Z,3.30
2018-06-17T11:52:04.357Z,3.07
2018-06-17T11:54:34.149Z,3.30
2018-06-17T11:57:04.056Z,3.60
2018-06-17T11:59:33.930Z,3.40
2018-06-17T12:02:03.851Z,3.00
2018-06-17T12:04:33.708Z,3.57
2018-06-17T12:07:03.598Z,3.47
2018-06-17T12:09:33.528Z,3.37
2018-06-17T12:12:03.382Z,3.57
2018-06-17T12:14:33.232Z,3.70
2018-06-17T12:17:03.134Z,3.70
2018-06-17T12:19:33.023Z,3.37
2018-06-17T12:22:02.860Z,3.17
2018-06-17T12:24:32.660Z,3.27
2018-06-17T12:27:02.448Z,2.90
2018-06-17T12:29:32.315Z,3.20
2018-06-17T12:32:02.093Z,3.00
2018-06-17T12:34:31.926Z,2.80
2018-06-17T12:37:01.731Z,4.07
2018-06-17T12:39:31.560Z,3.50
2018-06-17T12:42:01.356Z,2.97
2018-06-17T12:44:31.235Z,3.07
2018-06-17T12:47:01.059Z,2.90
2018-06-17T12:49:30.905Z,2.43
2018-06-17T12:52:00.699Z,2.93
2018-06-17T12:54:30.544Z,2.67
2018-06-17T12:57:00.337Z,3.30
2018-06-17T12:59:30.183Z,3.00
2018-06-17T13:01:59.984Z,2.87
2018-06-17T13:04:29.809Z,3.17
2018-06-17T13:06:59.644Z,3.23
2018-06-17T13:09:29.504Z,3.10
2018-06-17T13:11:59.323Z,2.90
2018-06-17T13:14:29.162Z,3.17
2018-06-17T13:16:58.990Z,3.00
2018-06-17T13:19:28.819Z,3.63
2018-06-17T13:21:58.696Z,3.30
2018-06-17T13:24:28.516Z,3.70
2018-06-17T13:26:58.320Z,3.67
2018-06-17T13:29:28.167Z,3.67
2018-06-17T13:31:58.040Z,3.70
2018-06-17T13:34:27.851Z,3.60
2018-06-17T13:36:57.720Z,3.47
2018-06-17T13:39:27.595Z,3.20
2018-06-17T13:41:57.488Z,3.53
2018-06-17T13:44:27.268Z,3.30
2018-06-17T13:46:57.160Z,3.50
2018-06-17T13:49:26.968Z,3.53
2018-06-17T13:51:56.801Z,4.20
2018-06-17T13:54:26.636Z,3.20
2018-06-17T13:56:56.480Z,3.60
2018-06-17T13:59:26.275Z,3.70
2018-06-17T14:01:56.132Z,3.60
2018-06-17T14:04:25.968Z,4.00
2018-06-17T14:06:55.852Z,3.40
2018-06-17T14:09:25.716Z,3.70
2018-06-17T14:11:55.568Z,2.70
2018-06-17T14:14:25.392Z,3.10
2018-06-17T14:16:55.456Z,3.23
2018-06-17T14:19:25.248Z,3.47
2018-06-17T14:21:55.144Z,3.47
2018-06-17T14:24:24.942Z,3.60
2018-06-17T14:26:54.793Z,3.27
2018-06-17T14:29:24.676Z,3.20
2018-06-17T14:31:54.519Z,3.00
2018-06-17T14:34:24.321Z,3.20
2018-06-17T14:36:54.193Z,3.20
2018-06-17T14:39:24.025Z,3.23
2018-06-17T14:41:58.978Z,3.10
2018-06-17T14:44:33.902Z,3.30
2018-06-17T14:47:08.881Z,3.20
2018-06-17T14:49:43.828Z,3.47
2018-06-17T14:52:18.760Z,3.70
2018-06-17T14:54:48.592Z,3.60
2018-06-17T14:57:18.454Z,3.37
2018-06-17T14:59:48.295Z,3.20
2018-06-17T15:02:18.204Z,3.20
2018-06-17T15:04:48.012Z,3.47
2018-06-17T15:07:17.880Z,3.60
2018-06-17T15:09:47.679Z,3.40
2018-06-17T15:12:17.479Z,2.97
2018-06-17T15:14:47.304Z,3.37
2018-06-17T15:17:17.193Z,3.73
2018-06-17T15:19:47.091Z,3.50
2018-06-17T15:22:16.848Z,3.40
2018-06-17T15:24:46.693Z,3.17
2018-06-17T15:27:16.512Z,3.23
2018-06-17T15:29:46.351Z,4.10
2018-06-17T15:32:21.351Z,3.30
2018-06-17T15:34:56.136Z,3.17
2018-06-17T15:37:31.115Z,3.57
2018-06-17T15:40:01.000Z,3.17
2018-06-17T15:42:30.840Z,3.20
2018-06-17T15:45:00.635Z,3.13
2018-06-17T15:47:30.464Z,3.53
2018-06-17T15:50:00.264Z,5.00
2018-06-17T15:52:30.104Z,4.60
2018-06-17T15:54:59.904Z,4.30
2018-06-17T15:57:29.812Z,4.87
2018-06-17T15:59:59.616Z,5.17
2018-06-17T16:02:29.508Z,4.17
2018-06-17T16:04:59.346Z,3.30
2018-06-17T16:07:29.184Z,3.70
2018-06-17T16:09:58.988Z,3.43
2018-06-17T16:12:33.920Z,2.97
2018-06-17T16:15:08.704Z,3.40
2018-06-17T16:17:43.576Z,3.87
2018-06-17T16:20:18.484Z,3.97
2018-06-17T16:22:48.319Z,3.70
2018-06-17T16:25:18.164Z,3.30
2018-06-17T16:27:47.960Z,3.70
2018-06-17T16:30:17.816Z,3.30
2018-06-17T16:32:47.667Z,3.30
2018-06-17T16:35:17.516Z,3.37
2018-06-17T16:37:47.333Z,3.20
2018-06-17T16:40:17.199Z,3.43
2018-06-17T16:42:47.304Z,3.00
2018-06-17T16:45:17.141Z,3.47
2018-06-17T16:47:46.976Z,3.23
2018-06-17T16:50:16.805Z,3.27
2018-06-17T16:52:51.671Z,3.70
2018-06-17T16:57:28.632Z,3.60
2018-06-17T17:00:01.843Z,3.83
2018-06-17T17:02:31.700Z,4.03
2018-06-17T17:05:01.517Z,4.07
2018-06-17T17:07:31.345Z,3.83
2018-06-17T17:10:01.270Z,4.27
2018-06-17T17:12:31.056Z,4.00
2018-06-17T17:15:00.859Z,3.63
2018-06-17T17:17:30.744Z,4.10
2018-06-17T17:20:00.580Z,3.70
2018-06-17T17:22:30.476Z,4.37
2018-06-17T17:25:00.285Z,3.80
2018-06-17T17:27:30.115Z,4.00
2018-06-17T17:29:59.929Z,4.33
2018-06-17T17:32:34.756Z,3.70
2018-06-17T17:35:09.604Z,3.70
2018-06-17T17:37:44.514Z,3.80
2018-06-17T17:40:19.460Z,3.60
2018-06-17T17:42:49.252Z,3.37
2018-06-17T17:45:23.073Z,3.37
2018-06-17T17:47:52.977Z,3.07
2018-06-17T17:50:22.848Z,3.67
2018-06-17T17:52:52.640Z,3.70
2018-06-17T17:55:22.485Z,3.60
2018-06-17T17:57:52.277Z,4.30
2018-06-17T18:00:22.112Z,3.97
2018-06-17T18:02:51.992Z,4.40
2018-06-17T18:05:21.775Z,3.60
2018-06-17T18:07:51.851Z,3.50
2018-06-17T18:10:21.639Z,3.50
2018-06-17T18:12:51.452Z,3.40
2018-06-17T18:15:21.308Z,3.83
2018-06-17T18:17:51.125Z,3.40
2018-06-17T18:20:20.988Z,3.30
2018-06-17T18:22:50.958Z,4.90
2018-06-17T18:25:25.967Z,6.07
2018-06-17T18:28:00.792Z,7.57
2018-06-17T18:30:35.731Z,6.80
2018-06-17T18:33:10.697Z,13.87
2018-06-17T18:35:45.611Z,5.30
2018-06-17T18:38:15.432Z,4.97
2018-06-17T18:40:45.278Z,5.23
2018-06-17T18:43:15.118Z,4.80
2018-06-17T18:45:44.964Z,5.67
2018-06-17T18:48:14.797Z,5.53
2018-06-17T18:50:44.676Z,5.00
2018-06-17T18:53:19.319Z,5.13
2018-06-17T18:55:49.144Z,5.30
2018-06-17T18:58:19.300Z,5.50
2018-06-17T19:00:49.740Z,5.43
2018-06-17T19:03:19.761Z,5.43
2018-06-17T19:05:49.610Z,5.53
2018-06-17T19:08:24.592Z,5.87
2018-06-17T19:10:59.495Z,5.80
2018-06-17T19:13:34.441Z,5.80
2018-06-17T19:16:11.768Z,5.90
2018-06-17T19:18:41.548Z,6.37
2018-06-17T19:21:11.385Z,6.80
2018-06-17T19:23:41.224Z,7.20
2018-06-17T19:26:11.096Z,9.00
2018-06-17T19:28:40.908Z,11.47
2018-06-17T19:31:10.750Z,9.00
2018-06-17T19:33:40.551Z,8.27
2018-06-17T19:36:10.454Z,8.07
2018-06-17T19:38:40.297Z,7.50
2018-06-17T19:41:10.193Z,5.90
2018-06-17T19:43:40.040Z,5.90
2018-06-17T19:46:09.869Z,5.93
2018-06-17T19:48:39.798Z,5.90
2018-06-17T19:51:14.708Z,6.03
2018-06-17T19:55:56.605Z,6.17
2018-06-17T19:58:31.380Z,6.73
2018-06-17T20:01:02.820Z,6.27
2018-06-17T20:03:32.707Z,6.60
2018-06-17T20:06:02.558Z,6.67
2018-06-17T20:08:32.413Z,6.50
2018-06-17T20:11:02.421Z,6.67
2018-06-17T20:13:32.267Z,6.70
2018-06-17T20:16:02.109Z,7.17
2018-06-17T20:18:32.023Z,8.00
2018-06-17T20:21:01.880Z,7.80
2018-06-17T20:23:31.701Z,7.90
2018-06-17T20:26:01.535Z,8.33
2018-06-17T20:28:31.403Z,7.93
2018-06-17T20:31:07.064Z,7.57
2018-06-17T20:33:41.865Z,6.97
2018-06-17T20:36:16.816Z,6.50
2018-06-17T20:38:51.592Z,6.50
2018-06-17T20:41:26.592Z,5.87
2018-06-17T20:43:56.468Z,5.80
2018-06-17T20:46:26.308Z,5.97
2018-06-17T20:48:56.196Z,6.20
2018-06-17T20:51:26.030Z,5.53
2018-06-17T20:53:55.900Z,6.17
2018-06-17T20:56:25.732Z,6.50
2018-06-17T20:58:55.568Z,8.53
2018-06-17T21:01:25.482Z,5.70
2018-06-17T21:03:55.304Z,6.77
2018-06-17T21:06:25.205Z,6.63
2018-06-17T21:08:54.992Z,7.77
2018-06-17T21:11:24.852Z,8.07
2018-06-17T21:13:54.636Z,8.40
2018-06-17T21:16:24.436Z,9.17
2018-06-17T21:18:59.383Z,9.33
2018-06-17T21:21:34.245Z,9.10
2018-06-17T21:24:09.092Z,9.40
2018-06-17T21:26:44.047Z,8.63
2018-06-17T21:29:13.839Z,8.77
2018-06-17T21:31:43.695Z,8.30
2018-06-17T21:34:13.516Z,9.00
2018-06-17T21:36:43.358Z,8.20
2018-06-17T21:39:13.200Z,8.97
2018-06-17T21:41:42.989Z,7.80
2018-06-17T21:44:12.820Z,9.30
2018-06-17T21:46:42.637Z,8.97
2018-06-17T21:49:12.599Z,8.70
2018-06-17T21:51:42.428Z,8.13
2018-06-17T21:54:12.261Z,8.20
2018-06-17T21:56:42.062Z,8.17
2018-06-17T21:59:11.904Z,9.13
2018-06-17T22:01:41.739Z,8.70
2018-06-17T22:04:16.553Z,8.83
2018-06-17T22:06:46.403Z,9.00
2018-06-17T22:09:21.348Z,9.60
2018-06-17T22:11:56.237Z,8.97
2018-06-17T22:14:31.036Z,9.17
2018-06-17T22:17:06.016Z,9.63
2018-06-17T22:19:35.971Z,9.30
2018-06-17T22:22:05.774Z,10.30
2018-06-17T22:24:35.670Z,9.67
2018-06-17T22:27:05.531Z,10.30
2018-06-17T22:29:35.404Z,10.53
2018-06-17T22:32:05.300Z,10.17
2018-06-17T22:34:35.123Z,10.33
2018-06-17T22:37:05.008Z,10.47
2018-06-17T22:39:34.856Z,10.27
2018-06-17T22:42:04.733Z,10.20
2018-06-17T22:44:34.521Z,10.10
2018-06-17T22:47:04.382Z,10.17
2018-06-17T22:49:34.215Z,9.37
2018-06-17T22:52:04.092Z,9.63
2018-06-17T22:54:44.705Z,10.10
2018-06-17T22:57:19.629Z,8.70
2018-06-17T22:59:54.421Z,9.03
2018-06-17T23:02:29.360Z,9.13
2018-06-17T23:05:04.338Z,9.03
2018-06-17T23:07:39.299Z,9.57
2018-06-17T23:10:10.669Z,7.87
2018-06-17T23:12:40.717Z,8.10
2018-06-17T23:15:10.618Z,8.10
2018-06-17T23:17:40.560Z,7.60
2018-06-17T23:20:10.388Z,6.57
2018-06-17T23:22:40.228Z,7.27
2018-06-17T23:25:10.005Z,6.57
2018-06-17T23:27:39.820Z,6.70
2018-06-17T23:30:09.632Z,6.30
2018-06-17T23:32:39.533Z,6.37
2018-06-17T23:35:09.381Z,5.53
2018-06-17T23:37:39.220Z,6.30
2018-06-17T23:40:09.045Z,6.40
2018-06-17T23:42:38.875Z,6.97
2018-06-17T23:45:08.692Z,6.23
2018-06-17T23:47:43.651Z,6.90
2018-06-17T23:50:18.560Z,7.33
2018-06-17T23:52:53.532Z,6.43
2018-06-17T23:55:28.313Z,6.60
2018-06-17T23:57:58.140Z,6.80
